createdAt,value
2019-06-07T00:01:44.358Z,21.81
2019-06-07T00:04:16.101Z,21.69
2019-06-07T00:06:47.003Z,21.75
2019-06-07T00:09:21.971Z,21.81
2019-06-07T00:11:49.488Z,21.75
2019-06-07T00:14:21.148Z,21.75
2019-06-07T00:16:51.613Z,21.69
2019-06-07T00:19:21.741Z,21.62
2019-06-07T00:22:17.696Z,21.56
2019-06-07T00:24:23.858Z,21.69
2019-06-07T00:26:58.866Z,21.62
2019-06-07T00:29:26.214Z,21.50
2019-06-07T00:31:56.495Z,21.50
2019-06-07T00:34:27.711Z,21.62
2019-06-07T00:36:57.878Z,21.62
2019-06-07T00:39:29.570Z,21.62
2019-06-07T00:41:59.522Z,21.50
2019-06-07T00:44:29.752Z,21.37
2019-06-07T00:47:00.047Z,21.31
2019-06-07T00:49:40.648Z,21.50
2019-06-07T00:52:03.800Z,21.44
2019-06-07T00:54:34.216Z,21.44
2019-06-07T00:57:04.934Z,21.44
2019-06-07T00:59:35.034Z,21.44
2019-06-07T01:02:05.477Z,21.37
2019-06-07T01:04:35.974Z,21.37
2019-06-07T01:07:06.192Z,21.31
2019-06-07T01:09:36.408Z,21.44
2019-06-07T01:12:07.149Z,21.37
2019-06-07T01:14:37.331Z,21.19
2019-06-07T01:17:41.703Z,21.19
2019-06-07T01:19:58.934Z,21.25
2019-06-07T01:22:29.587Z,21.31
2019-06-07T01:25:00.396Z,21.31
2019-06-07T01:27:31.001Z,21.12
2019-06-07T01:30:01.215Z,21.12
2019-06-07T01:32:31.978Z,21.12
2019-06-07T01:35:02.447Z,21.12
2019-06-07T01:37:32.503Z,21.19
2019-06-07T01:40:03.063Z,21.12
2019-06-07T01:42:33.553Z,21.12
2019-06-07T01:45:05.888Z,20.94
2019-06-07T01:47:36.045Z,21.00
2019-06-07T01:50:08.070Z,21.00
2019-06-07T01:52:39.791Z,21.00
2019-06-07T01:55:09.214Z,20.94
2019-06-07T01:57:48.039Z,20.94
2019-06-07T02:00:14.561Z,20.94
2019-06-07T02:02:44.067Z,21.00
2019-06-07T02:05:14.785Z,21.00
2019-06-07T02:07:44.994Z,20.81
2019-06-07T02:10:15.456Z,20.94
2019-06-07T02:12:45.894Z,20.88
2019-06-07T02:15:21.273Z,20.75
2019-06-07T02:17:49.593Z,20.81
2019-06-07T02:20:20.322Z,20.75
2019-06-07T02:22:51.144Z,20.81
2019-06-07T02:25:38.278Z,20.75
2019-06-07T02:28:11.000Z,20.81
2019-06-07T02:30:50.906Z,20.88
2019-06-07T02:32:57.716Z,20.69
2019-06-07T02:35:34.767Z,20.62
2019-06-07T02:38:00.321Z,20.69
2019-06-07T02:40:36.481Z,20.75
2019-06-07T02:43:03.111Z,20.62
2019-06-07T02:45:42.544Z,20.62
2019-06-07T02:48:04.418Z,20.69
2019-06-07T02:50:38.382Z,20.62
2019-06-07T02:53:06.616Z,20.62
2019-06-07T02:56:11.655Z,20.69
2019-06-07T02:58:08.936Z,20.75
2019-06-07T03:01:04.073Z,20.50
2019-06-07T03:03:19.046Z,20.62
2019-06-07T03:05:50.360Z,20.50
2019-06-07T03:08:21.061Z,20.50
2019-06-07T03:10:52.881Z,20.37
2019-06-07T03:13:22.362Z,20.44
2019-06-07T03:15:54.850Z,20.44
2019-06-07T03:18:42.533Z,20.44
2019-06-07T03:21:15.457Z,20.62
2019-06-07T03:23:46.641Z,20.88
2019-06-07T03:26:17.279Z,20.94
2019-06-07T03:28:48.602Z,21.12
2019-06-07T03:31:18.856Z,20.88
2019-06-07T03:33:49.070Z,20.88
2019-06-07T03:36:25.522Z,20.88
2019-06-07T03:38:51.428Z,20.88
2019-06-07T03:41:21.650Z,20.88
2019-06-07T03:43:52.498Z,21.00
2019-06-07T03:46:22.748Z,21.12
2019-06-07T03:48:52.846Z,21.06
2019-06-07T03:51:26.936Z,21.00
2019-06-07T03:53:56.086Z,21.12
2019-06-07T03:56:28.180Z,21.25
2019-06-07T03:58:58.656Z,21.31
2019-06-07T04:01:30.746Z,21.25
2019-06-07T04:04:02.044Z,21.50
2019-06-07T04:06:34.026Z,21.37
2019-06-07T04:09:05.876Z,21.37
2019-06-07T04:11:40.421Z,21.44
2019-06-07T04:14:07.215Z,21.56
2019-06-07T04:16:41.702Z,21.69
2019-06-07T04:19:09.160Z,21.62
2019-06-07T04:21:42.930Z,21.62
2019-06-07T04:24:13.504Z,21.31
2019-06-07T04:26:46.641Z,21.37
2019-06-07T04:29:34.051Z,21.31
2019-06-07T04:31:47.826Z,21.31
2019-06-07T04:34:18.038Z,21.25
2019-06-07T04:36:58.448Z,21.50
2019-06-07T04:39:22.268Z,21.56
2019-06-07T04:41:53.940Z,21.50
2019-06-07T04:44:25.356Z,21.75
2019-06-07T04:46:57.422Z,22.00
2019-06-07T04:49:29.949Z,22.13
2019-06-07T04:52:03.756Z,22.19
2019-06-07T04:54:35.736Z,21.94
2019-06-07T04:57:05.819Z,21.69
2019-06-07T05:02:09.319Z,21.87
2019-06-07T05:04:42.402Z,21.87
2019-06-07T05:07:13.179Z,22.00
2019-06-07T05:09:43.537Z,22.25
2019-06-07T05:12:13.784Z,22.44
2019-06-07T05:14:44.442Z,22.62
2019-06-07T05:17:15.763Z,22.62
2019-06-07T05:19:45.933Z,22.56
2019-06-07T05:22:16.092Z,22.56
2019-06-07T05:24:46.237Z,22.56
2019-06-07T05:27:16.412Z,22.31
2019-06-07T05:30:08.782Z,22.00
2019-06-07T05:32:18.887Z,22.00
2019-06-07T05:34:48.991Z,22.19
2019-06-07T05:37:19.272Z,22.13
2019-06-07T05:39:50.518Z,22.13
2019-06-07T05:42:21.221Z,22.25
2019-06-07T05:44:52.052Z,22.25
2019-06-07T05:47:22.266Z,22.37
2019-06-07T05:49:52.356Z,22.44
2019-06-07T05:52:22.919Z,22.62
2019-06-07T05:54:53.314Z,22.75
2019-06-07T05:57:23.410Z,22.81
2019-06-07T05:59:53.803Z,22.81
2019-06-07T06:02:25.069Z,22.69
2019-06-07T06:04:54.705Z,23.06
2019-06-07T06:07:24.700Z,22.81
2019-06-07T06:09:54.817Z,22.75
2019-06-07T06:12:35.169Z,22.81
2019-06-07T06:14:58.105Z,22.94
2019-06-07T06:17:28.961Z,22.87
2019-06-07T06:19:59.187Z,22.81
2019-06-07T06:22:30.425Z,22.87
2019-06-07T06:25:31.110Z,22.94
2019-06-07T06:30:08.136Z,23.00
2019-06-07T06:32:45.567Z,23.06
2019-06-07T06:35:10.725Z,23.38
2019-06-07T06:37:46.468Z,23.69
2019-06-07T06:40:16.237Z,23.81
2019-06-07T06:42:49.064Z,23.75
2019-06-07T06:45:19.194Z,23.69
2019-06-07T06:47:50.677Z,23.62
2019-06-07T06:50:21.483Z,23.69
2019-06-07T06:52:54.716Z,23.62
2019-06-07T06:55:23.848Z,23.81
2019-06-07T06:57:54.041Z,23.87
2019-06-07T07:01:04.896Z,23.87
2019-06-07T07:05:56.945Z,23.94
2019-06-07T07:08:27.257Z,23.69
2019-06-07T07:10:57.419Z,23.87
2019-06-07T07:13:29.132Z,23.38
2019-06-07T07:15:58.853Z,23.44
2019-06-07T07:18:29.125Z,23.56
2019-06-07T07:21:00.577Z,24.19
2019-06-07T07:23:30.835Z,24.63
2019-06-07T07:26:02.254Z,25.37
2019-06-07T07:28:32.485Z,25.88
2019-06-07T07:31:04.483Z,26.87
2019-06-07T07:34:20.707Z,27.19
2019-06-07T07:36:28.146Z,27.75
2019-06-07T07:38:39.506Z,28.25
2019-06-07T07:41:15.539Z,28.38
2019-06-07T07:43:45.782Z,28.69
2019-06-07T07:46:31.552Z,28.56
2019-06-07T07:48:48.553Z,29.19
2019-06-07T07:51:18.920Z,29.44
2019-06-07T07:53:59.154Z,28.44
2019-06-07T07:56:20.983Z,28.44
2019-06-07T07:58:57.935Z,26.87
2019-06-07T08:01:23.147Z,26.06
2019-06-07T08:03:54.972Z,25.69
2019-06-07T08:06:25.240Z,25.94
2019-06-07T08:08:57.064Z,27.69
2019-06-07T08:11:30.037Z,27.00
2019-06-07T08:14:00.269Z,26.31
2019-06-07T08:16:30.492Z,27.50
2019-06-07T08:19:04.047Z,26.75
2019-06-07T08:21:33.147Z,26.87
2019-06-07T08:24:05.416Z,26.19
2019-06-07T08:26:34.975Z,25.62
2019-06-07T08:29:05.577Z,25.31
2019-06-07T08:31:36.140Z,25.25
2019-06-07T08:34:06.456Z,25.12
2019-06-07T08:36:42.348Z,24.69
2019-06-07T08:39:09.013Z,25.25
2019-06-07T08:41:53.514Z,25.75
2019-06-07T08:44:23.211Z,25.44
2019-06-07T08:46:43.901Z,25.75
2019-06-07T08:49:14.061Z,25.88
2019-06-07T08:51:44.303Z,25.69
2019-06-07T08:54:22.443Z,25.31
2019-06-07T08:56:46.356Z,25.25
2019-06-07T08:59:16.515Z,25.25
2019-06-07T09:01:47.222Z,25.25
2019-06-07T09:04:17.360Z,25.25
2019-06-07T09:07:06.661Z,25.00
2019-06-07T09:09:19.662Z,24.87
2019-06-07T09:11:49.816Z,25.12
2019-06-07T09:14:19.946Z,25.25
2019-06-07T09:16:51.497Z,25.19
2019-06-07T09:19:20.744Z,25.62
2019-06-07T09:21:50.853Z,25.31
2019-06-07T09:24:21.141Z,25.62
2019-06-07T09:26:51.433Z,25.81
2019-06-07T09:29:21.652Z,25.94
2019-06-07T09:31:53.696Z,26.06
2019-06-07T09:34:26.002Z,26.00
2019-06-07T09:36:58.260Z,25.94
2019-06-07T09:39:28.247Z,25.88
2019-06-07T09:42:00.740Z,25.62
2019-06-07T09:44:31.124Z,25.69
2019-06-07T09:47:29.585Z,25.62
2019-06-07T09:49:33.914Z,25.37
2019-06-07T09:52:09.114Z,25.25
2019-06-07T09:55:05.931Z,25.31
2019-06-07T09:57:16.379Z,25.31
2019-06-07T09:59:39.724Z,25.69
2019-06-07T10:02:13.739Z,25.75
2019-06-07T10:04:43.388Z,26.00
2019-06-07T10:07:30.724Z,26.69
2019-06-07T10:12:19.010Z,26.50
2019-06-07T10:14:49.134Z,25.94
2019-06-07T10:17:19.623Z,25.81
2019-06-07T10:19:49.801Z,25.75
2019-06-07T10:22:19.942Z,25.56
2019-06-07T10:24:50.165Z,25.37
2019-06-07T10:27:23.936Z,25.62
2019-06-07T10:29:54.065Z,25.81
2019-06-07T10:32:24.713Z,26.00
2019-06-07T10:34:54.906Z,26.19
2019-06-07T10:37:27.115Z,26.50
2019-06-07T10:39:57.018Z,27.06
2019-06-07T10:42:27.256Z,27.13
2019-06-07T10:44:57.443Z,26.94
2019-06-07T10:47:27.986Z,26.75
2019-06-07T10:49:58.221Z,26.62
2019-06-07T10:52:28.303Z,26.25
2019-06-07T10:54:58.620Z,26.25
2019-06-07T10:57:28.733Z,26.31
2019-06-07T10:59:58.960Z,26.25
2019-06-07T11:02:29.414Z,26.25
2019-06-07T11:04:59.624Z,26.19
2019-06-07T11:07:30.007Z,26.19
2019-06-07T11:10:07.340Z,26.06
2019-06-07T11:12:32.073Z,26.12
2019-06-07T11:15:02.314Z,26.00
2019-06-07T11:17:32.702Z,25.94
2019-06-07T11:20:03.586Z,25.94
2019-06-07T11:22:33.668Z,25.94
2019-06-07T11:25:06.905Z,26.12
2019-06-07T11:27:37.179Z,26.19
2019-06-07T11:30:10.542Z,26.12
2019-06-07T11:32:41.421Z,26.00
2019-06-07T11:35:13.972Z,26.00
2019-06-07T11:37:45.134Z,25.94
2019-06-07T11:40:29.749Z,25.81
2019-06-07T11:42:52.555Z,25.88
2019-06-07T11:45:21.374Z,25.88
2019-06-07T11:47:52.111Z,26.12
2019-06-07T11:50:22.425Z,26.31
2019-06-07T11:52:52.586Z,26.25
2019-06-07T11:55:22.791Z,26.12
2019-06-07T11:57:52.934Z,25.88
2019-06-07T12:00:25.042Z,25.88
2019-06-07T12:02:55.367Z,25.81
2019-06-07T12:05:25.564Z,25.69
2019-06-07T12:07:57.169Z,25.69
2019-06-07T12:10:39.670Z,25.75
2019-06-07T12:12:59.576Z,25.94
2019-06-07T12:15:29.711Z,25.88
2019-06-07T12:17:59.887Z,25.88
2019-06-07T12:20:30.271Z,26.06
2019-06-07T12:23:00.353Z,26.00
2019-06-07T12:25:30.530Z,25.81
2019-06-07T12:28:00.663Z,25.81
2019-06-07T12:30:30.913Z,25.88
2019-06-07T12:33:01.365Z,25.94
2019-06-07T12:35:31.603Z,25.94
2019-06-07T12:38:01.747Z,25.88
2019-06-07T12:40:32.506Z,26.00
2019-06-07T12:43:03.316Z,25.94
2019-06-07T12:45:44.436Z,25.94
2019-06-07T12:48:06.008Z,26.00
2019-06-07T12:50:43.150Z,26.00
2019-06-07T12:53:08.419Z,26.00
2019-06-07T12:55:39.572Z,26.00
2019-06-07T12:58:09.840Z,25.88
2019-06-07T13:00:40.114Z,25.88
2019-06-07T13:03:10.542Z,25.88
2019-06-07T13:05:40.854Z,25.88
2019-06-07T13:08:11.145Z,25.81
2019-06-07T13:10:41.361Z,25.81
2019-06-07T13:13:11.504Z,25.88
2019-06-07T13:15:41.705Z,25.88
2019-06-07T13:18:15.020Z,26.00
2019-06-07T13:20:44.144Z,26.00
2019-06-07T13:23:14.275Z,26.06
2019-06-07T13:25:46.665Z,26.06
2019-06-07T13:28:17.254Z,26.12
2019-06-07T13:30:48.199Z,26.00
2019-06-07T13:33:19.099Z,26.00
2019-06-07T13:35:49.327Z,26.00
2019-06-07T13:38:26.731Z,26.00
2019-06-07T13:40:57.137Z,26.00
2019-06-07T13:43:28.782Z,26.00
2019-06-07T13:45:58.968Z,25.94
2019-06-07T13:48:30.861Z,26.12
2019-06-07T13:51:00.976Z,26.06
2019-06-07T13:53:31.293Z,25.94
2019-06-07T13:56:01.438Z,25.94
2019-06-07T13:58:32.912Z,26.00
2019-06-07T14:01:02.230Z,25.94
2019-06-07T14:03:33.881Z,25.94
2019-06-07T14:06:05.047Z,25.94
2019-06-07T14:08:35.181Z,25.94
2019-06-07T14:11:05.425Z,26.06
2019-06-07T14:13:35.720Z,26.06
2019-06-07T14:16:06.050Z,26.00
2019-06-07T14:18:39.746Z,25.94
2019-06-07T14:21:09.602Z,25.94
2019-06-07T14:23:48.991Z,26.00
2019-06-07T14:26:14.439Z,26.06
2019-06-07T14:28:45.554Z,26.00
2019-06-07T14:31:15.765Z,25.94
2019-06-07T14:33:46.439Z,26.00
2019-06-07T14:36:16.712Z,25.94
2019-06-07T14:38:48.050Z,25.94
2019-06-07T14:41:18.371Z,26.00
2019-06-07T14:43:48.652Z,26.00
2019-06-07T14:46:19.002Z,25.94
2019-06-07T14:48:49.478Z,26.00
2019-06-07T14:51:19.637Z,25.94
2019-06-07T14:53:49.975Z,25.94
2019-06-07T14:56:20.192Z,26.06
2019-06-07T14:58:50.278Z,26.06
2019-06-07T15:01:20.506Z,26.00
2019-06-07T15:03:50.950Z,26.06
2019-06-07T15:06:21.295Z,26.06
2019-06-07T15:08:51.811Z,26.19
2019-06-07T15:11:22.208Z,26.06
2019-06-07T15:13:54.138Z,26.12
2019-06-07T15:16:24.353Z,26.00
2019-06-07T15:18:54.793Z,26.06
2019-06-07T15:21:25.036Z,25.94
2019-06-07T15:23:55.166Z,25.88
2019-06-07T15:26:25.290Z,25.88
2019-06-07T15:28:57.526Z,25.88
2019-06-07T15:31:29.900Z,25.81
2019-06-07T15:34:00.718Z,25.75
2019-06-07T15:36:30.804Z,25.88
2019-06-07T15:39:01.049Z,25.88
2019-06-07T15:41:33.112Z,25.81
2019-06-07T15:44:04.948Z,25.88
2019-06-07T15:46:35.644Z,25.81
2019-06-07T15:49:07.137Z,25.75
2019-06-07T15:51:38.536Z,25.81
2019-06-07T15:54:08.979Z,25.75
2019-06-07T15:56:39.216Z,25.75
2019-06-07T15:59:09.336Z,25.75
2019-06-07T16:01:42.053Z,25.69
2019-06-07T16:04:12.718Z,25.69
2019-06-07T16:06:43.528Z,25.75
2019-06-07T16:09:14.143Z,25.69
2019-06-07T16:11:44.478Z,25.75
2019-06-07T16:14:14.938Z,25.75
2019-06-07T16:16:45.105Z,25.75
2019-06-07T16:19:15.370Z,25.69
2019-06-07T16:21:45.478Z,25.69
2019-06-07T16:24:15.635Z,25.69
2019-06-07T16:26:45.769Z,25.75
2019-06-07T16:29:16.017Z,25.69
2019-06-07T16:31:46.223Z,25.62
2019-06-07T16:34:17.713Z,25.62
2019-06-07T16:36:48.858Z,25.56
2019-06-07T16:39:19.934Z,25.56
2019-06-07T16:41:50.205Z,25.56
2019-06-07T16:44:20.404Z,25.62
2019-06-07T16:46:50.732Z,25.62
2019-06-07T16:49:21.727Z,25.62
2019-06-07T16:51:51.573Z,25.56
2019-06-07T16:54:21.693Z,25.56
2019-06-07T16:56:51.875Z,25.56
2019-06-07T16:59:22.145Z,25.56
2019-06-07T17:01:52.279Z,25.56
2019-06-07T17:04:22.562Z,25.50
2019-06-07T17:06:52.957Z,25.56
2019-06-07T17:09:23.145Z,25.50
2019-06-07T17:11:53.329Z,25.50
2019-06-07T17:14:23.468Z,25.56
2019-06-07T17:16:53.772Z,25.56
2019-06-07T17:19:24.196Z,25.50
2019-06-07T17:21:54.308Z,25.50
2019-06-07T17:24:26.863Z,25.50
2019-06-07T17:26:57.075Z,25.50
2019-06-07T17:29:27.324Z,25.44
2019-06-07T17:31:56.584Z,25.44
2019-06-07T17:34:26.951Z,25.37
2019-06-07T17:36:57.125Z,25.37
2019-06-07T17:39:27.263Z,25.37
2019-06-07T17:42:02.179Z,25.37
2019-06-07T17:44:29.238Z,25.31
2019-06-07T17:46:59.354Z,25.37
2019-06-07T17:49:31.374Z,25.25
2019-06-07T17:52:01.549Z,25.25
2019-06-07T17:54:31.702Z,25.25
2019-06-07T17:57:01.857Z,25.19
2019-06-07T17:59:32.004Z,25.19
2019-06-07T18:02:14.236Z,25.12
2019-06-07T18:04:34.482Z,25.12
2019-06-07T18:07:04.990Z,25.06
2019-06-07T18:09:36.290Z,24.94
2019-06-07T18:12:06.572Z,24.87
2019-06-07T18:14:37.422Z,24.87
2019-06-07T18:17:07.572Z,24.81
2019-06-07T18:19:38.184Z,24.69
2019-06-07T18:22:11.316Z,24.63
2019-06-07T18:24:41.556Z,24.56
2019-06-07T18:27:11.894Z,24.50
2019-06-07T18:29:42.008Z,24.50
2019-06-07T18:32:13.581Z,24.44
2019-06-07T18:34:44.604Z,24.37
2019-06-07T18:37:16.119Z,24.37
2019-06-07T18:39:47.026Z,24.31
2019-06-07T18:42:17.649Z,24.25
2019-06-07T18:44:48.929Z,24.25
2019-06-07T18:47:19.332Z,24.25
2019-06-07T18:49:51.194Z,24.19
2019-06-07T18:52:23.320Z,24.06
2019-06-07T18:54:54.977Z,24.12
2019-06-07T18:57:24.652Z,24.06
2019-06-07T18:59:54.904Z,23.94
2019-06-07T19:02:25.221Z,23.87
2019-06-07T19:04:58.330Z,23.87
2019-06-07T19:07:28.972Z,23.81
2019-06-07T19:09:59.547Z,23.75
2019-06-07T19:12:29.909Z,23.75
2019-06-07T19:15:00.215Z,23.75
2019-06-07T19:17:30.519Z,23.69
2019-06-07T19:20:01.118Z,23.75
2019-06-07T19:22:31.496Z,23.56
2019-06-07T19:25:04.245Z,23.44
2019-06-07T19:27:34.726Z,23.56
2019-06-07T19:30:07.381Z,23.56
2019-06-07T19:32:39.947Z,23.62
2019-06-07T19:35:12.294Z,23.56
2019-06-07T19:37:42.782Z,23.50
2019-06-07T19:40:13.827Z,23.50
2019-06-07T19:42:44.246Z,23.56
2019-06-07T19:45:30.383Z,23.50
2019-06-07T19:47:48.683Z,23.44
2019-06-07T19:50:20.950Z,23.44
2019-06-07T19:52:53.181Z,23.44
2019-06-07T19:55:23.553Z,23.38
2019-06-07T19:57:55.478Z,23.38
2019-06-07T20:00:26.130Z,23.44
2019-06-07T20:02:57.909Z,23.31
2019-06-07T20:05:28.541Z,23.38
2019-06-07T20:07:58.853Z,23.31
2019-06-07T20:10:29.137Z,23.31
2019-06-07T20:13:00.697Z,23.38
2019-06-07T20:15:30.322Z,23.31
2019-06-07T20:18:01.313Z,23.31
2019-06-07T20:20:31.871Z,23.25
2019-06-07T20:23:03.047Z,23.38
2019-06-07T20:25:34.381Z,23.31
2019-06-07T20:28:05.534Z,23.12
2019-06-07T20:30:37.617Z,23.06
2019-06-07T20:33:08.251Z,23.12
2019-06-07T20:35:40.411Z,23.19
2019-06-07T20:38:13.221Z,23.19
2019-06-07T20:40:43.371Z,23.19
2019-06-07T20:43:13.461Z,23.19
2019-06-07T20:45:43.607Z,23.19
2019-06-07T20:48:13.767Z,23.00
2019-06-07T20:50:44.494Z,23.06
2019-06-07T20:53:16.084Z,23.00
2019-06-07T20:55:45.355Z,22.94
2019-06-07T20:58:15.326Z,23.00
2019-06-07T21:00:45.489Z,22.94
2019-06-07T21:03:15.715Z,22.94
2019-06-07T21:05:46.714Z,23.06
2019-06-07T21:08:17.293Z,22.94
2019-06-07T21:10:47.409Z,22.87
2019-06-07T21:13:17.579Z,22.87
2019-06-07T21:15:49.226Z,22.94
2019-06-07T21:18:20.213Z,22.94
2019-06-07T21:20:50.765Z,22.87
2019-06-07T21:23:21.995Z,22.87
2019-06-07T21:25:52.139Z,22.94
2019-06-07T21:28:22.356Z,22.94
2019-06-07T21:30:52.596Z,22.94
2019-06-07T21:33:22.677Z,22.94
2019-06-07T21:35:53.322Z,22.87
2019-06-07T21:38:23.531Z,22.81
2019-06-07T21:40:53.668Z,22.69
2019-06-07T21:43:23.966Z,22.81
2019-06-07T21:46:04.683Z,22.75
2019-06-07T21:48:25.938Z,22.69
2019-06-07T21:50:56.660Z,22.62
2019-06-07T21:53:30.000Z,22.69
2019-06-07T21:56:00.066Z,22.56
2019-06-07T21:58:30.156Z,22.50
2019-06-07T22:01:06.750Z,22.44
2019-06-07T22:03:40.125Z,22.31
2019-06-07T22:06:11.708Z,22.37
2019-06-07T22:08:41.049Z,22.44
2019-06-07T22:11:12.325Z,22.56
2019-06-07T22:13:42.715Z,22.37
2019-06-07T22:16:26.247Z,22.44
2019-06-07T22:18:44.839Z,22.37
2019-06-07T22:21:16.564Z,22.31
2019-06-07T22:23:45.799Z,22.31
2019-06-07T22:26:15.941Z,22.31
2019-06-07T22:28:46.891Z,22.25
2019-06-07T22:31:17.052Z,22.25
2019-06-07T22:33:47.154Z,22.25
2019-06-07T22:36:17.905Z,22.13
2019-06-07T22:38:49.264Z,22.13
2019-06-07T22:41:19.375Z,22.25
2019-06-07T22:43:49.505Z,22.19
2019-06-07T22:46:19.872Z,22.25
2019-06-07T22:48:51.304Z,22.19
2019-06-07T22:51:21.952Z,22.13
2019-06-07T22:53:52.047Z,22.13
2019-06-07T22:56:23.826Z,22.06
2019-06-07T22:58:53.086Z,22.13
2019-06-07T23:01:23.629Z,22.06
2019-06-07T23:03:53.826Z,21.94
2019-06-07T23:06:24.273Z,22.00
2019-06-07T23:08:54.426Z,22.00
2019-06-07T23:11:26.228Z,22.00
2019-06-07T23:13:56.634Z,22.06
2019-06-07T23:16:26.800Z,21.94
2019-06-07T23:18:57.313Z,22.06
2019-06-07T23:21:27.753Z,22.06
2019-06-07T23:23:57.883Z,22.00
2019-06-07T23:26:28.028Z,21.94
2019-06-07T23:28:58.258Z,21.75
2019-06-07T23:31:28.469Z,21.75
2019-06-07T23:33:58.608Z,21.81
2019-06-07T23:36:29.259Z,21.81
2019-06-07T23:38:59.441Z,21.75
2019-06-07T23:41:29.591Z,21.69
2019-06-07T23:43:59.685Z,21.69
2019-06-07T23:46:29.868Z,21.69
2019-06-07T23:48:59.971Z,21.56
2019-06-07T23:51:30.634Z,21.62
2019-06-07T23:54:00.964Z,21.50
2019-06-07T23:56:31.716Z,21.62
2019-06-07T23:59:01.752Z,21.56
